createdAt,value
2022-11-30T00:00:49.029Z,98822.38
2022-11-30T00:03:15.551Z,98825.84
2022-11-30T00:05:42.425Z,98822.38
2022-11-30T00:08:08.913Z,98829.34
2022-11-30T00:10:35.502Z,98831.97
2022-11-30T00:13:01.999Z,98826.75
2022-11-30T00:15:28.500Z,98838.03
2022-11-30T00:17:57.921Z,98838.91
2022-11-30T00:20:24.690Z,98839.78
2022-11-30T00:22:51.316Z,98847.59
2022-11-30T00:25:17.929Z,98838.03
2022-11-30T00:27:44.423Z,98834.56
2022-11-30T00:30:11.481Z,98836.31
2022-11-30T00:32:37.939Z,98834.56
2022-11-30T00:35:04.686Z,98843.25
2022-11-30T00:37:31.261Z,98845.84
2022-11-30T00:39:57.823Z,98843.25
2022-11-30T00:42:24.256Z,98834.56
2022-11-30T00:44:50.850Z,98840.66
2022-11-30T00:47:17.323Z,98832.84
2022-11-30T00:49:43.861Z,98833.69
2022-11-30T00:52:10.353Z,98838.94
2022-11-30T00:54:36.829Z,98839.78
2022-11-30T00:57:03.339Z,98829.34
2022-11-30T00:59:29.843Z,98838.91
2022-11-30T01:01:56.434Z,98836.31
2022-11-30T01:04:22.949Z,98840.66
2022-11-30T01:06:49.442Z,98842.41
2022-11-30T01:09:16.027Z,98848.47
2022-11-30T01:11:42.551Z,98854.56
2022-11-30T01:14:09.072Z,98845.00
2022-11-30T01:16:35.601Z,98850.22
2022-11-30T01:19:02.327Z,98859.81
2022-11-30T01:21:29.465Z,98852.81
2022-11-30T01:23:56.493Z,98852.81
2022-11-30T01:26:23.707Z,98855.44
2022-11-30T01:28:55.151Z,98855.44
2022-11-30T01:31:23.796Z,98857.19
2022-11-30T01:33:52.840Z,98852.81
2022-11-30T01:36:22.048Z,98856.31
2022-11-30T01:38:50.949Z,98855.44
2022-11-30T01:41:21.914Z,98851.09
2022-11-30T01:43:50.727Z,98863.25
2022-11-30T01:46:42.287Z,98851.09
2022-11-30T01:49:08.693Z,98847.59
2022-11-30T01:51:51.731Z,98857.19
2022-11-30T01:54:26.655Z,98855.44
2022-11-30T01:57:02.190Z,98858.94
2022-11-30T01:59:29.633Z,98854.56
2022-11-30T02:01:56.545Z,98851.94
2022-11-30T02:04:28.868Z,98851.97
2022-11-30T02:06:57.741Z,98854.56
2022-11-30T02:09:26.079Z,98853.69
2022-11-30T02:11:53.348Z,98854.59
2022-11-30T02:14:36.328Z,98861.53
2022-11-30T02:17:08.815Z,98860.66
2022-11-30T02:20:05.990Z,98862.41
2022-11-30T02:23:00.451Z,98851.97
2022-11-30T02:26:11.425Z,98853.72
2022-11-30T02:28:52.675Z,98854.59
2022-11-30T02:31:25.488Z,98850.22
2022-11-30T02:33:54.139Z,98846.75
2022-11-30T02:36:22.476Z,98843.28
2022-11-30T02:38:49.297Z,98846.75
2022-11-30T02:41:15.834Z,98844.13
2022-11-30T02:43:42.581Z,98846.75
2022-11-30T02:46:29.770Z,98841.53
2022-11-30T02:49:14.027Z,98833.69
2022-11-30T02:51:42.725Z,98838.03
2022-11-30T02:54:09.533Z,98831.97
2022-11-30T02:56:36.255Z,98833.69
2022-11-30T02:59:02.809Z,98838.03
2022-11-30T03:01:29.871Z,98848.47
2022-11-30T03:03:56.385Z,98845.88
2022-11-30T03:06:22.921Z,98843.25
2022-11-30T03:08:49.372Z,98844.13
2022-11-30T03:11:15.872Z,98851.09
2022-11-30T03:13:42.378Z,98850.22
2022-11-30T03:16:10.924Z,98855.44
2022-11-30T03:18:38.276Z,98856.31
2022-11-30T03:21:06.608Z,98865.00
2022-11-30T03:23:33.608Z,98865.00
2022-11-30T03:26:00.154Z,98871.09
2022-11-30T03:28:26.672Z,98871.09
2022-11-30T03:30:53.284Z,98866.75
2022-11-30T03:33:19.955Z,98873.72
2022-11-30T03:35:46.617Z,98883.25
2022-11-30T03:38:13.154Z,98885.91
2022-11-30T03:40:39.634Z,98879.81
2022-11-30T03:43:06.266Z,98881.56
2022-11-30T03:45:32.735Z,98878.94
2022-11-30T03:47:59.263Z,98886.75
2022-11-30T03:50:25.757Z,98884.16
2022-11-30T03:52:52.245Z,98886.75
2022-11-30T03:55:18.770Z,98887.63
2022-11-30T03:57:45.281Z,98886.75
2022-11-30T04:00:12.325Z,98884.16
2022-11-30T04:02:44.299Z,98885.03
2022-11-30T04:05:11.285Z,98890.25
2022-11-30T04:07:37.800Z,98885.03
2022-11-30T04:10:08.384Z,98893.72
2022-11-30T04:12:35.372Z,98890.25
2022-11-30T04:15:01.810Z,98886.78
2022-11-30T04:17:28.485Z,98888.50
2022-11-30T04:19:55.029Z,98890.25
2022-11-30T04:22:21.596Z,98886.78
2022-11-30T04:24:48.279Z,98886.78
2022-11-30T04:27:14.917Z,98892.00
2022-11-30T04:29:41.414Z,98894.59
2022-11-30T04:32:08.008Z,98891.97
2022-11-30T04:34:34.633Z,98890.25
2022-11-30T04:37:01.102Z,98887.63
2022-11-30T04:39:27.621Z,98893.69
2022-11-30T04:41:54.144Z,98899.78
2022-11-30T04:44:20.646Z,98900.66
2022-11-30T04:46:47.141Z,98895.44
2022-11-30T04:49:13.762Z,98894.56
2022-11-30T04:51:40.217Z,98900.66
2022-11-30T04:54:06.734Z,98895.44
2022-11-30T04:56:33.289Z,98895.44
2022-11-30T04:59:01.318Z,98902.41
2022-11-30T05:01:28.187Z,98898.91
2022-11-30T05:03:54.741Z,98894.56
2022-11-30T05:06:21.320Z,98902.41
2022-11-30T05:08:47.770Z,98905.88
2022-11-30T05:11:14.345Z,98900.66
2022-11-30T05:13:41.940Z,98905.88
2022-11-30T05:16:10.638Z,98905.88
2022-11-30T05:18:37.227Z,98898.06
2022-11-30T05:21:03.752Z,98908.50
2022-11-30T05:23:30.267Z,98905.00
2022-11-30T05:25:56.764Z,98915.44
2022-11-30T05:28:23.283Z,98909.34
2022-11-30T05:30:49.771Z,98914.56
2022-11-30T05:33:16.253Z,98919.78
2022-11-30T05:35:43.210Z,98914.59
2022-11-30T05:38:09.888Z,98913.69
2022-11-30T05:40:36.781Z,98925.03
2022-11-30T05:43:04.916Z,98928.50
2022-11-30T05:45:31.424Z,98921.53
2022-11-30T05:47:58.018Z,98931.09
2022-11-30T05:50:24.675Z,98929.34
2022-11-30T05:52:56.205Z,98930.22
2022-11-30T05:55:26.644Z,98931.09
2022-11-30T05:57:53.937Z,98931.97
2022-11-30T06:00:21.736Z,98929.34
2022-11-30T06:02:48.721Z,98933.72
2022-11-30T06:05:15.445Z,98938.06
2022-11-30T06:07:41.966Z,98928.50
2022-11-30T06:10:09.131Z,98932.84
2022-11-30T06:12:35.596Z,98931.97
2022-11-30T06:15:02.174Z,98935.47
2022-11-30T06:17:28.653Z,98936.31
2022-11-30T06:19:55.121Z,98931.94
2022-11-30T06:22:21.937Z,98926.72
2022-11-30T06:24:48.590Z,98933.66
2022-11-30T06:27:15.296Z,98931.06
2022-11-30T06:29:41.768Z,98935.41
2022-11-30T06:32:08.464Z,98938.88
2022-11-30T06:34:34.989Z,98937.13
2022-11-30T06:37:01.486Z,98942.34
2022-11-30T06:39:57.842Z,98938.91
2022-11-30T06:42:14.584Z,98938.84
2022-11-30T06:44:41.071Z,98941.50
2022-11-30T06:47:07.602Z,98943.22
2022-11-30T06:49:34.136Z,98945.81
2022-11-30T06:52:01.779Z,98939.72
2022-11-30T06:54:28.380Z,98944.91
2022-11-30T06:56:56.623Z,98944.94
2022-11-30T06:59:23.195Z,98948.41
2022-11-30T07:01:49.663Z,98949.25
2022-11-30T07:04:16.205Z,98950.13
2022-11-30T07:06:43.531Z,98947.53
2022-11-30T07:09:11.010Z,98957.97
2022-11-30T07:11:37.504Z,98949.28
2022-11-30T07:14:04.065Z,98957.97
2022-11-30T07:16:30.629Z,98959.72
2022-11-30T07:18:57.258Z,98963.22
2022-11-30T07:21:24.369Z,98961.50
2022-11-30T07:24:09.658Z,98958.91
2022-11-30T07:26:36.288Z,98954.56
2022-11-30T07:29:02.937Z,98954.59
2022-11-30T07:31:32.317Z,98963.28
2022-11-30T07:34:05.560Z,98970.22
2022-11-30T07:36:32.691Z,98975.44
2022-11-30T07:38:59.354Z,98974.59
2022-11-30T07:41:26.308Z,98971.09
2022-11-30T07:43:53.031Z,98963.28
2022-11-30T07:46:19.910Z,98962.41
2022-11-30T07:48:46.796Z,98963.28
2022-11-30T07:51:18.825Z,98960.69
2022-11-30T07:53:45.948Z,98954.63
2022-11-30T07:56:15.243Z,98957.22
2022-11-30T07:58:42.487Z,98959.81
2022-11-30T08:01:11.919Z,98956.34
2022-11-30T08:03:38.624Z,98958.97
2022-11-30T08:06:07.304Z,98964.19
2022-11-30T08:08:36.830Z,98971.16
2022-11-30T08:11:05.211Z,98962.44
2022-11-30T08:13:32.174Z,98971.13
2022-11-30T08:16:07.807Z,98977.25
2022-11-30T08:18:34.803Z,98979.84
2022-11-30T08:21:03.974Z,98972.88
2022-11-30T08:23:35.176Z,98971.16
2022-11-30T08:26:26.268Z,98970.28
2022-11-30T08:28:53.963Z,98975.50
2022-11-30T08:31:21.917Z,98974.63
2022-11-30T08:33:48.607Z,98979.00
2022-11-30T08:36:18.439Z,98993.81
2022-11-30T08:38:46.276Z,98988.56
2022-11-30T08:41:15.321Z,98988.56
2022-11-30T08:43:42.747Z,98989.47
2022-11-30T08:46:35.130Z,98996.44
2022-11-30T08:49:19.741Z,98998.16
2022-11-30T08:52:16.035Z,99002.50
2022-11-30T08:54:34.035Z,99000.75
2022-11-30T08:57:00.523Z,99002.50
2022-11-30T08:59:27.000Z,99011.22
2022-11-30T09:01:53.549Z,99007.72
2022-11-30T09:04:20.089Z,99020.81
2022-11-30T09:06:46.730Z,99016.44
2022-11-30T09:09:13.676Z,99020.81
2022-11-30T09:11:40.156Z,99023.44
2022-11-30T09:14:09.082Z,99024.31
2022-11-30T09:16:35.934Z,99026.03
2022-11-30T09:19:02.856Z,99017.31
2022-11-30T09:21:29.424Z,99021.66
2022-11-30T09:23:56.611Z,99026.91
2022-11-30T09:26:25.289Z,99015.59
2022-11-30T09:28:53.301Z,99022.56
2022-11-30T09:31:24.228Z,99013.84
2022-11-30T09:33:51.542Z,99016.44
2022-11-30T09:36:20.494Z,99016.44
2022-11-30T09:38:47.977Z,99012.97
2022-11-30T09:41:23.416Z,99022.53
2022-11-30T09:44:03.199Z,99012.94
2022-11-30T09:47:02.601Z,99012.06
2022-11-30T09:49:35.791Z,99015.53
2022-11-30T09:52:06.036Z,99007.69
2022-11-30T09:54:39.730Z,99008.56
2022-11-30T09:57:30.193Z,99009.44
2022-11-30T10:00:02.554Z,99005.09
2022-11-30T10:02:40.689Z,99005.06
2022-11-30T10:05:15.904Z,99005.97
2022-11-30T10:07:59.760Z,99001.53
2022-11-30T10:10:38.394Z,99010.28
2022-11-30T10:13:31.685Z,99013.75
2022-11-30T10:16:01.349Z,99010.25
2022-11-30T10:18:51.041Z,99014.63
2022-11-30T10:21:42.189Z,99010.25
2022-11-30T10:24:32.374Z,99026.81
2022-11-30T10:27:05.835Z,99018.97
2022-11-30T10:29:36.111Z,99012.88
2022-11-30T10:32:13.666Z,99008.50
2022-11-30T10:34:43.070Z,99015.47
2022-11-30T10:37:15.219Z,99008.47
2022-11-30T10:40:04.867Z,99006.72
2022-11-30T10:42:50.269Z,99008.44
2022-11-30T10:45:29.009Z,99004.94
2022-11-30T10:48:25.939Z,99005.84
2022-11-30T10:50:53.234Z,99002.38
2022-11-30T10:53:20.073Z,99005.91
2022-11-30T10:56:01.584Z,98998.06
2022-11-30T10:58:33.027Z,99005.06
2022-11-30T11:01:03.367Z,99003.28
2022-11-30T11:03:30.396Z,99003.28
2022-11-30T11:06:07.626Z,99003.28
2022-11-30T11:08:34.142Z,99004.13
2022-11-30T11:11:00.985Z,99005.00
2022-11-30T11:13:42.067Z,98999.69
2022-11-30T11:16:11.501Z,99004.13
2022-11-30T11:18:53.550Z,98999.75
2022-11-30T11:21:22.697Z,98998.88
2022-11-30T11:23:52.707Z,99003.22
2022-11-30T11:26:29.196Z,98999.75
2022-11-30T11:28:59.644Z,98998.00
2022-11-30T11:31:44.185Z,99002.41
2022-11-30T11:34:31.708Z,99002.38
2022-11-30T11:37:06.001Z,99003.25
2022-11-30T11:39:32.640Z,99009.34
2022-11-30T11:42:00.441Z,99003.22
2022-11-30T11:44:28.308Z,99005.03
2022-11-30T11:46:59.848Z,98996.22
2022-11-30T11:49:32.931Z,98999.69
2022-11-30T11:52:17.809Z,99003.19
2022-11-30T11:54:53.354Z,99004.94
2022-11-30T11:57:23.537Z,98994.56
2022-11-30T12:00:05.517Z,98995.41
2022-11-30T12:02:51.321Z,99006.75
2022-11-30T12:05:21.027Z,99001.50
2022-11-30T12:08:07.785Z,99002.38
2022-11-30T12:10:57.220Z,98997.97
2022-11-30T12:13:32.493Z,98997.06
2022-11-30T12:16:33.271Z,98988.31
2022-11-30T12:19:18.100Z,98993.56
2022-11-30T12:21:50.504Z,98996.19
2022-11-30T12:24:29.692Z,98997.06
2022-11-30T12:27:02.683Z,98993.56
2022-11-30T12:29:47.120Z,98990.97
2022-11-30T12:32:28.718Z,98995.31
2022-11-30T12:34:55.129Z,98996.22
2022-11-30T12:37:41.697Z,99001.44
2022-11-30T12:40:23.223Z,98997.97
2022-11-30T12:42:55.975Z,99002.31
2022-11-30T12:45:34.660Z,98998.78
2022-11-30T12:48:06.582Z,99001.47
2022-11-30T12:50:45.381Z,98994.44
2022-11-30T12:53:30.490Z,98994.44
2022-11-30T12:56:10.261Z,98999.69
2022-11-30T12:59:09.084Z,99000.63
2022-11-30T13:02:04.679Z,98992.78
2022-11-30T13:04:46.486Z,98999.69
2022-11-30T13:07:38.071Z,99004.94
2022-11-30T13:10:22.961Z,99006.69
2022-11-30T13:12:53.238Z,99010.25
2022-11-30T13:15:27.130Z,99001.50
2022-11-30T13:17:55.454Z,99010.22
2022-11-30T13:20:30.845Z,99008.53
2022-11-30T13:23:03.260Z,98998.94
2022-11-30T13:26:10.295Z,98999.84
2022-11-30T13:28:42.661Z,99009.44
2022-11-30T13:31:14.580Z,99005.06
2022-11-30T13:33:48.268Z,99002.47
2022-11-30T13:36:33.590Z,99007.69
2022-11-30T13:39:12.251Z,99013.81
2022-11-30T13:41:40.320Z,99019.03
2022-11-30T13:44:30.120Z,99017.28
2022-11-30T13:46:57.365Z,99012.94
2022-11-30T13:49:30.155Z,99004.25
2022-11-30T13:52:21.616Z,99012.09
2022-11-30T13:54:45.317Z,99011.19
2022-11-30T13:57:30.204Z,99009.44
2022-11-30T13:59:57.677Z,99010.34
2022-11-30T14:02:33.760Z,99012.94
2022-11-30T14:05:18.691Z,99021.69
2022-11-30T14:08:00.506Z,99013.84
2022-11-30T14:10:27.167Z,99026.91
2022-11-30T14:13:04.478Z,99017.34
2022-11-30T14:15:40.917Z,99031.25
2022-11-30T14:18:07.417Z,99032.13
2022-11-30T14:20:39.044Z,99033.00
2022-11-30T14:23:13.425Z,99034.72
2022-11-30T14:25:46.960Z,99028.63
2022-11-30T14:28:17.816Z,99035.59
2022-11-30T14:30:45.508Z,99033.88
2022-11-30T14:33:19.896Z,99038.22
2022-11-30T14:35:54.111Z,99031.25
2022-11-30T14:38:31.277Z,99035.63
2022-11-30T14:40:58.444Z,99032.13
2022-11-30T14:43:25.314Z,99038.22
2022-11-30T14:46:04.571Z,99043.44
2022-11-30T14:48:33.650Z,99046.91
2022-11-30T14:51:03.590Z,99039.94
2022-11-30T14:53:47.162Z,99045.19
2022-11-30T14:56:45.875Z,99037.34
2022-11-30T14:59:36.995Z,99046.91
2022-11-30T15:02:19.073Z,99046.00
2022-11-30T15:04:47.428Z,99053.88
2022-11-30T15:07:16.062Z,99051.28
2022-11-30T15:09:44.207Z,99046.03
2022-11-30T15:12:10.885Z,99059.09
2022-11-30T15:14:37.431Z,99059.06
2022-11-30T15:17:03.913Z,99046.88
2022-11-30T15:19:33.163Z,99046.88
2022-11-30T15:22:00.180Z,99045.13
2022-11-30T15:24:29.452Z,99045.97
2022-11-30T15:26:56.280Z,99045.94
2022-11-30T15:29:28.934Z,99053.78
2022-11-30T15:31:57.101Z,99052.00
2022-11-30T15:34:31.731Z,99048.53
2022-11-30T15:36:59.420Z,99045.06
2022-11-30T15:39:28.484Z,99047.63
2022-11-30T15:42:01.341Z,99057.19
2022-11-30T15:44:45.505Z,99051.09
2022-11-30T15:47:32.072Z,99054.56
2022-11-30T15:49:58.519Z,99050.22
2022-11-30T15:52:27.409Z,99060.66
2022-11-30T15:54:56.480Z,99062.34
2022-11-30T15:57:24.817Z,99059.72
2022-11-30T16:00:15.796Z,99055.34
2022-11-30T16:02:42.347Z,99062.31
2022-11-30T16:05:19.644Z,99063.19
2022-11-30T16:07:59.836Z,99060.56
2022-11-30T16:10:34.990Z,99074.44
2022-11-30T16:13:02.282Z,99068.38
2022-11-30T16:15:31.655Z,99077.94
2022-11-30T16:18:02.398Z,99081.41
2022-11-30T16:20:28.894Z,99076.19
2022-11-30T16:22:55.494Z,99075.28
2022-11-30T16:25:24.310Z,99077.88
2022-11-30T16:27:51.787Z,99085.75
2022-11-30T16:30:21.129Z,99083.09
2022-11-30T16:32:47.761Z,99090.03
2022-11-30T16:35:27.880Z,99092.66
2022-11-30T16:37:54.395Z,99091.78
2022-11-30T16:40:21.285Z,99092.69
2022-11-30T16:42:53.497Z,99090.88
2022-11-30T16:45:25.215Z,99082.19
2022-11-30T16:47:52.484Z,99090.88
2022-11-30T16:50:19.958Z,99094.41
2022-11-30T16:52:46.922Z,99083.88
2022-11-30T16:55:19.066Z,99089.06
2022-11-30T16:57:46.606Z,99093.44
2022-11-30T17:00:15.803Z,99101.19
2022-11-30T17:02:48.506Z,99101.19
2022-11-30T17:05:15.619Z,99098.63
2022-11-30T17:07:42.574Z,99103.03
2022-11-30T17:10:09.570Z,99095.13
2022-11-30T17:12:36.448Z,99100.38
2022-11-30T17:15:04.449Z,99108.19
2022-11-30T17:17:31.144Z,99109.94
2022-11-30T17:19:57.941Z,99109.94
2022-11-30T17:22:24.551Z,99107.31
2022-11-30T17:24:51.180Z,99108.22
2022-11-30T17:27:17.745Z,99117.75
2022-11-30T17:29:44.511Z,99116.03
2022-11-30T17:32:11.071Z,99123.03
2022-11-30T17:34:37.871Z,99124.72
2022-11-30T17:37:04.773Z,99126.50
2022-11-30T17:39:31.510Z,99137.81
2022-11-30T17:41:58.054Z,99125.59
2022-11-30T17:44:24.754Z,99129.94
2022-11-30T17:46:51.611Z,99130.88
2022-11-30T17:49:18.433Z,99134.34
2022-11-30T17:51:45.097Z,99138.63
2022-11-30T17:54:11.773Z,99135.13
2022-11-30T17:56:38.425Z,99132.53
2022-11-30T17:59:05.174Z,99136.03
2022-11-30T18:01:31.916Z,99131.72
2022-11-30T18:03:59.143Z,99139.50
2022-11-30T18:06:25.838Z,99137.75
2022-11-30T18:08:52.664Z,99135.16
2022-11-30T18:11:21.727Z,99143.84
2022-11-30T18:13:51.848Z,99149.91
2022-11-30T18:16:22.468Z,99144.75
2022-11-30T18:18:49.420Z,99143.88
2022-11-30T18:21:18.168Z,99154.31
2022-11-30T18:23:44.737Z,99150.78
2022-11-30T18:26:13.575Z,99153.31
2022-11-30T18:28:40.840Z,99155.94
2022-11-30T18:31:07.804Z,99159.41
2022-11-30T18:33:35.553Z,99163.75
2022-11-30T18:36:03.124Z,99160.28
2022-11-30T18:38:34.299Z,99166.34
2022-11-30T18:41:04.605Z,99168.09
2022-11-30T18:43:32.071Z,99183.69
2022-11-30T18:46:06.421Z,99174.97
2022-11-30T18:48:33.262Z,99181.06
2022-11-30T18:51:00.358Z,99183.69
2022-11-30T18:53:26.922Z,99185.41
2022-11-30T18:55:53.594Z,99181.06
2022-11-30T18:58:20.165Z,99180.13
2022-11-30T19:00:46.819Z,99187.09
2022-11-30T19:03:13.497Z,99183.63
2022-11-30T19:05:40.961Z,99181.94
2022-11-30T19:08:11.425Z,99188.81
2022-11-30T19:10:40.028Z,99190.63
2022-11-30T19:13:07.530Z,99193.09
2022-11-30T19:15:41.500Z,99187.03
2022-11-30T19:18:11.120Z,99192.19
2022-11-30T19:20:41.353Z,99191.34
2022-11-30T19:23:08.384Z,99192.19
2022-11-30T19:25:35.015Z,99188.75
2022-11-30T19:28:01.639Z,99198.22
2022-11-30T19:30:28.317Z,99193.94
2022-11-30T19:32:54.960Z,99193.88
2022-11-30T19:35:23.227Z,99199.97
2022-11-30T19:37:52.095Z,99207.72
2022-11-30T19:40:18.830Z,99206.81
2022-11-30T19:42:45.499Z,99204.22
2022-11-30T19:45:12.180Z,99210.28
2022-11-30T19:47:38.920Z,99220.63
2022-11-30T19:50:06.016Z,99210.19
2022-11-30T19:52:32.656Z,99214.53
2022-11-30T19:54:59.347Z,99214.44
2022-11-30T19:57:25.924Z,99211.78
2022-11-30T19:59:52.547Z,99225.72
2022-11-30T20:02:19.183Z,99222.97
2022-11-30T20:04:45.925Z,99219.56
2022-11-30T20:07:14.361Z,99224.72
2022-11-30T20:09:41.406Z,99222.88
2022-11-30T20:12:08.207Z,99223.91
2022-11-30T20:14:37.302Z,99223.66
2022-11-30T20:17:06.687Z,99234.13
2022-11-30T20:19:33.319Z,99240.25
2022-11-30T20:22:00.693Z,99231.44
2022-11-30T20:24:27.283Z,99233.16
2022-11-30T20:26:53.893Z,99228.06
2022-11-30T20:29:20.598Z,99228.84
2022-11-30T20:31:48.787Z,99229.78
2022-11-30T20:34:16.225Z,99229.72
2022-11-30T20:36:43.133Z,99235.69
2022-11-30T20:39:10.988Z,99232.28
2022-11-30T20:41:37.924Z,99238.38
2022-11-30T20:44:04.909Z,99235.66
2022-11-30T20:46:35.807Z,99239.22
2022-11-30T20:49:04.344Z,99235.72
2022-11-30T20:51:33.627Z,99239.16
2022-11-30T20:54:03.261Z,99240.00
2022-11-30T20:56:30.084Z,99247.75
2022-11-30T20:59:00.356Z,99241.75
2022-11-30T21:01:26.955Z,99240.91
2022-11-30T21:03:53.874Z,99241.84
2022-11-30T21:06:20.599Z,99241.81
2022-11-30T21:08:47.198Z,99243.63
2022-11-30T21:11:16.552Z,99247.13
2022-11-30T21:13:45.193Z,99243.50
2022-11-30T21:16:14.470Z,99249.53
2022-11-30T21:18:44.428Z,99239.22
2022-11-30T21:21:21.694Z,99248.78
2022-11-30T21:23:49.412Z,99253.94
2022-11-30T21:26:20.189Z,99257.25
2022-11-30T21:28:48.400Z,99258.16
2022-11-30T21:31:15.896Z,99250.44
2022-11-30T21:33:48.940Z,99250.44
2022-11-30T21:36:19.550Z,99244.34
2022-11-30T21:38:46.350Z,99257.34
2022-11-30T21:41:13.947Z,99245.25
2022-11-30T21:43:41.182Z,99249.47
2022-11-30T21:46:14.031Z,99248.69
2022-11-30T21:48:43.103Z,99250.47
2022-11-30T21:51:22.316Z,99247.03
2022-11-30T21:53:50.893Z,99241.75
2022-11-30T21:56:20.658Z,99245.22
2022-11-30T21:58:49.007Z,99247.75
2022-11-30T22:01:25.554Z,99254.63
2022-11-30T22:03:54.191Z,99265.84
2022-11-30T22:06:22.495Z,99253.69
2022-11-30T22:08:49.242Z,99265.94
2022-11-30T22:11:18.165Z,99255.50
2022-11-30T22:13:45.523Z,99246.75
2022-11-30T22:16:15.113Z,99264.13
2022-11-30T22:18:43.371Z,99255.50
2022-11-30T22:21:17.745Z,99265.84
2022-11-30T22:23:52.231Z,99261.50
2022-11-30T22:26:21.423Z,99254.63
2022-11-30T22:28:50.658Z,99257.13
2022-11-30T22:31:19.359Z,99252.78
2022-11-30T22:33:46.858Z,99253.69
2022-11-30T22:36:18.583Z,99257.13
2022-11-30T22:38:45.851Z,99257.09
2022-11-30T22:41:15.069Z,99257.09
2022-11-30T22:43:42.742Z,99256.19
2022-11-30T22:46:12.109Z,99262.38
2022-11-30T22:48:39.657Z,99259.72
2022-11-30T22:51:09.203Z,99266.69
2022-11-30T22:53:37.033Z,99263.31
2022-11-30T22:56:06.257Z,99264.94
2022-11-30T22:58:33.288Z,99265.81
2022-11-30T23:01:08.463Z,99265.81
2022-11-30T23:03:35.381Z,99262.25
2022-11-30T23:06:02.086Z,99264.00
2022-11-30T23:08:29.949Z,99252.63
2022-11-30T23:11:02.136Z,99254.41
2022-11-30T23:13:29.369Z,99260.47
2022-11-30T23:15:57.838Z,99259.63
2022-11-30T23:18:24.727Z,99262.25
2022-11-30T23:20:51.297Z,99260.50
2022-11-30T23:23:18.417Z,99263.84
2022-11-30T23:25:45.085Z,99263.00
2022-11-30T23:28:11.706Z,99268.19
2022-11-30T23:30:38.264Z,99264.63
2022-11-30T23:33:05.036Z,99257.56
2022-11-30T23:35:31.610Z,99265.31
2022-11-30T23:37:58.196Z,99260.16
2022-11-30T23:40:25.643Z,99263.69
2022-11-30T23:42:52.400Z,99264.25
2022-11-30T23:45:18.958Z,99257.19
2022-11-30T23:47:45.549Z,99254.56
2022-11-30T23:50:12.262Z,99259.91
2022-11-30T23:52:38.822Z,99254.66
2022-11-30T23:55:06.114Z,99255.44
2022-11-30T23:57:32.713Z,99251.25
2022-11-30T23:59:59.248Z,99260.00
